Time,TemperatureF,DewpointF,PressureIn,WindDirection,WindDirectionDegrees,WindSpeedMPH,WindSpeedGustMPH,Humidity,HourlyPrecipIn,Conditions,Clouds,dailyrainin,SoftwareType,DateUTC
2013-04-30 00:02:00,71.0,47.0,28.02,SE,146,4.0,7.0,42,0.00,,,0.00,,2013-04-30 05:02:00,
2013-04-30 00:12:00,71.0,47.0,28.02,SE,146,4.0,7.0,42,0.00,,,0.00,,2013-04-30 05:12:00,
2013-04-30 00:22:00,71.0,47.0,28.02,ESE,117,5.0,5.0,42,0.00,,,0.00,,2013-04-30 05:22:00,
2013-04-30 00:31:00,71.0,47.0,28.02,SW,235,5.0,5.0,42,0.00,,,0.00,,2013-04-30 05:31:00,
2013-04-30 00:42:00,71.0,47.0,28.02,SW,235,5.0,5.0,42,0.00,,,0.00,,2013-04-30 05:42:00,
2013-04-30 00:51:00,71.0,47.0,28.02,ESE,115,3.0,5.0,42,0.00,,,0.00,,2013-04-30 05:51:00,
2013-04-30 01:02:00,71.0,47.0,28.02,SE,144,3.0,6.0,43,0.00,,,0.00,,2013-04-30 06:02:00,
2013-04-30 01:12:00,71.0,47.0,28.02,SE,144,3.0,6.0,43,0.00,,,0.00,,2013-04-30 06:12:00,
2013-04-30 01:21:00,71.0,47.0,28.02,SE,144,3.0,6.0,43,0.00,,,0.00,,2013-04-30 06:21:00,
2013-04-30 01:31:00,71.0,47.0,28.02,SE,144,3.0,6.0,43,0.00,,,0.00,,2013-04-30 06:31:00,
2013-04-30 01:41:00,71.0,47.0,28.02,SE,144,3.0,6.0,43,0.00,,,0.00,,2013-04-30 06:41:00,
2013-04-30 01:52:00,70.0,45.0,28.05,SSE,162,8.0,10.0,41,0.00,,,0.00,,2013-04-30 06:52:00,
2013-04-30 02:01:00,70.0,45.0,28.05,SSE,149,5.0,10.0,40,0.00,,,0.00,,2013-04-30 07:01:00,
2013-04-30 02:11:00,70.0,45.0,28.05,SSE,149,5.0,10.0,40,0.00,,,0.00,,2013-04-30 07:11:00,
2013-04-30 02:21:00,69.0,44.0,28.05,SSW,202,5.0,11.0,40,0.00,,,0.00,,2013-04-30 07:21:00,
2013-04-30 02:31:00,69.0,44.0,28.05,SSW,202,5.0,11.0,40,0.00,,,0.00,,2013-04-30 07:31:00,
2013-04-30 02:41:00,69.0,44.0,28.05,SSW,202,5.0,11.0,40,0.00,,,0.00,,2013-04-30 07:41:00,
2013-04-30 02:52:00,69.0,44.0,28.05,SSW,202,5.0,11.0,40,0.00,,,0.00,,2013-04-30 07:52:00,
2013-04-30 03:02:00,68.0,45.0,28.05,South,169,7.0,8.0,43,0.00,,,0.00,,2013-04-30 08:02:00,
2013-04-30 03:11:00,68.0,45.0,28.05,South,169,7.0,8.0,43,0.00,,,0.00,,2013-04-30 08:11:00,
2013-04-30 03:22:00,68.0,45.0,28.05,SE,131,7.0,7.0,43,0.00,,,0.00,,2013-04-30 08:22:00,
2013-04-30 03:32:00,68.0,45.0,28.05,SE,131,7.0,7.0,43,0.00,,,0.00,,2013-04-30 08:32:00,
2013-04-30 03:42:00,68.0,45.0,28.05,SE,131,7.0,7.0,43,0.00,,,0.00,,2013-04-30 08:42:00,
2013-04-30 03:52:00,67.0,44.0,28.05,SSE,159,5.0,8.0,44,0.00,,,0.00,,2013-04-30 08:52:00,
2013-04-30 04:01:00,67.0,45.0,28.05,SE,127,7.0,7.0,45,0.00,,,0.00,,2013-04-30 09:01:00,
2013-04-30 04:11:00,67.0,45.0,28.05,SE,127,7.0,7.0,45,0.00,,,0.00,,2013-04-30 09:11:00,
2013-04-30 04:22:00,67.0,46.0,28.05,South,171,5.0,5.0,46,0.00,,,0.00,,2013-04-30 09:22:00,
2013-04-30 04:33:00,66.0,45.0,28.05,SSE,159,5.0,6.0,47,0.00,,,0.00,,2013-04-30 09:33:00,
2013-04-30 04:43:00,66.0,45.0,28.05,SSE,159,5.0,6.0,47,0.00,,,0.00,,2013-04-30 09:43:00,
2013-04-30 04:52:00,66.0,46.0,28.05,SSE,149,5.0,8.0,49,0.00,,,0.00,,2013-04-30 09:52:00,
2013-04-30 05:03:00,66.0,47.0,28.05,SE,140,5.0,5.0,50,0.00,,,0.00,,2013-04-30 10:03:00,
2013-04-30 05:11:00,66.0,47.0,28.05,SE,140,5.0,5.0,50,0.00,,,0.00,,2013-04-30 10:11:00,
2013-04-30 05:22:00,66.0,47.0,28.05,SE,140,5.0,5.0,50,0.00,,,0.00,,2013-04-30 10:22:00,
2013-04-30 05:32:00,65.0,48.0,28.05,SE,124,3.0,5.0,55,0.00,,,0.00,,2013-04-30 10:32:00,
2013-04-30 05:41:00,65.0,48.0,28.05,SE,124,3.0,5.0,55,0.00,,,0.00,,2013-04-30 10:41:00,
2013-04-30 05:52:00,65.0,50.0,28.05,SSE,150,5.0,8.0,58,0.00,,,0.00,,2013-04-30 10:52:00,
2013-04-30 06:02:00,65.0,50.0,28.05,SSE,150,5.0,8.0,58,0.00,,,0.00,,2013-04-30 11:02:00,
2013-04-30 06:11:00,65.0,50.0,28.05,SSE,150,5.0,8.0,58,0.00,,,0.00,,2013-04-30 11:11:00,
2013-04-30 06:21:00,65.0,51.0,28.05,SE,129,5.0,8.0,61,0.00,,,0.00,,2013-04-30 11:21:00,
2013-04-30 06:31:00,65.0,52.0,28.05,SSE,161,5.0,8.0,63,0.00,,,0.00,,2013-04-30 11:31:00,
2013-04-30 06:42:00,65.0,52.0,28.05,SSE,161,5.0,8.0,63,0.00,,,0.00,,2013-04-30 11:42:00,
2013-04-30 06:51:00,64.0,52.0,28.05,South,176,7.0,9.0,65,0.00,,,0.00,,2013-04-30 11:51:00,
2013-04-30 07:01:00,64.0,52.0,28.05,SSE,167,8.0,9.0,66,0.00,,,0.00,,2013-04-30 12:01:00,
2013-04-30 07:11:00,64.0,52.0,28.05,SSE,167,8.0,9.0,66,0.00,,,0.00,,2013-04-30 12:11:00,
2013-04-30 07:21:00,64.0,52.0,28.05,SSE,167,8.0,9.0,66,0.00,,,0.00,,2013-04-30 12:21:00,
2013-04-30 07:31:00,64.0,52.0,28.05,SSE,167,8.0,9.0,66,0.00,,,0.00,,2013-04-30 12:31:00,
2013-04-30 07:41:00,64.0,52.0,28.05,SSE,167,8.0,9.0,66,0.00,,,0.00,,2013-04-30 12:41:00,
2013-04-30 08:01:00,66.0,55.0,28.05,SE,142,11.0,13.0,67,0.00,,,0.00,,2013-04-30 13:01:00,
2013-04-30 08:11:00,66.0,55.0,28.05,SE,142,11.0,13.0,67,0.00,,,0.00,,2013-04-30 13:11:00,
2013-04-30 08:21:00,67.0,55.0,28.05,SE,133,10.0,10.0,66,0.00,,,0.00,,2013-04-30 13:21:00,
2013-04-30 08:31:00,67.0,55.0,28.05,SSE,150,9.0,10.0,66,0.00,,,0.00,,2013-04-30 13:31:00,
2013-04-30 08:41:00,67.0,55.0,28.05,SSE,150,9.0,10.0,66,0.00,,,0.00,,2013-04-30 13:41:00,
2013-04-30 08:52:00,69.0,56.0,28.05,South,170,12.0,15.0,64,0.00,,,0.00,,2013-04-30 13:52:00,
2013-04-30 09:02:00,69.0,56.0,28.05,South,170,12.0,15.0,64,0.00,,,0.00,,2013-04-30 14:02:00,
2013-04-30 09:11:00,69.0,56.0,28.05,South,170,12.0,15.0,64,0.00,,,0.00,,2013-04-30 14:11:00,
2013-04-30 09:21:00,69.0,56.0,28.05,South,170,12.0,15.0,64,0.00,,,0.00,,2013-04-30 14:21:00,
2013-04-30 09:31:00,69.0,56.0,28.05,South,170,12.0,15.0,64,0.00,,,0.00,,2013-04-30 14:31:00,
2013-04-30 09:52:00,74.0,55.0,28.05,SSE,153,6.0,11.0,51,0.00,,,0.00,,2013-04-30 14:52:00,
2013-04-30 10:01:00,74.0,55.0,28.08,SSE,150,7.0,8.0,51,0.00,,,0.00,,2013-04-30 15:01:00,
2013-04-30 10:11:00,74.0,55.0,28.08,SSE,150,7.0,8.0,51,0.00,,,0.00,,2013-04-30 15:11:00,
2013-04-30 10:21:00,74.0,55.0,28.08,SSE,150,7.0,8.0,51,0.00,,,0.00,,2013-04-30 15:21:00,
2013-04-30 10:32:00,74.0,55.0,28.08,SSE,150,7.0,8.0,51,0.00,,,0.00,,2013-04-30 15:32:00,
2013-04-30 10:42:00,74.0,55.0,28.08,SSE,150,7.0,8.0,51,0.00,,,0.00,,2013-04-30 15:42:00,
2013-04-30 10:52:00,77.0,56.0,28.11,SE,140,3.0,5.0,49,0.00,,,0.00,,2013-04-30 15:52:00,
2013-04-30 11:02:00,78.0,56.0,28.11,South,185,5.0,5.0,46,0.00,,,0.00,,2013-04-30 16:02:00,
2013-04-30 11:12:00,78.0,56.0,28.11,South,185,5.0,5.0,46,0.00,,,0.00,,2013-04-30 16:12:00,
2013-04-30 11:23:00,79.0,55.0,28.11,SE,139,11.0,11.0,43,0.00,,,0.00,,2013-04-30 16:23:00,
2013-04-30 11:33:00,79.0,55.0,28.11,SE,139,11.0,11.0,43,0.00,,,0.00,,2013-04-30 16:33:00,
2013-04-30 11:42:00,79.0,55.0,28.11,SE,139,11.0,11.0,43,0.00,,,0.00,,2013-04-30 16:42:00,
2013-04-30 11:52:00,79.0,55.0,28.11,SE,139,11.0,11.0,43,0.00,,,0.00,,2013-04-30 16:52:00,
2013-04-30 12:02:00,79.0,55.0,28.11,SE,124,5.0,9.0,43,0.00,,,0.00,,2013-04-30 17:02:00,
2013-04-30 12:12:00,79.0,55.0,28.11,SE,124,5.0,9.0,43,0.00,,,0.00,,2013-04-30 17:12:00,
2013-04-30 12:22:00,79.0,55.0,28.11,SE,124,5.0,9.0,43,0.00,,,0.00,,2013-04-30 17:22:00,
2013-04-30 12:32:00,82.0,55.0,28.08,SE,145,5.0,10.0,40,0.00,,,0.00,,2013-04-30 17:32:00,
2013-04-30 12:42:00,82.0,55.0,28.08,SE,145,5.0,10.0,40,0.00,,,0.00,,2013-04-30 17:42:00,
2013-04-30 12:52:00,83.0,55.0,28.08,SE,143,5.0,9.0,38,0.00,,,0.00,,2013-04-30 17:52:00,
2013-04-30 13:01:00,83.0,55.0,28.08,SE,143,5.0,9.0,38,0.00,,,0.00,,2013-04-30 18:01:00,
2013-04-30 13:11:00,84.0,55.0,28.08,SE,140,5.0,7.0,37,0.00,,,0.00,,2013-04-30 18:11:00,
2013-04-30 13:22:00,84.0,55.0,28.08,SE,140,5.0,7.0,37,0.00,,,0.00,,2013-04-30 18:22:00,
2013-04-30 13:32:00,84.0,53.0,28.08,ESE,113,9.0,9.0,35,0.00,,,0.00,,2013-04-30 18:32:00,
2013-04-30 13:42:00,85.0,55.0,28.08,SE,144,5.0,5.0,36,0.00,,,0.00,,2013-04-30 18:42:00,
2013-04-30 13:52:00,85.0,55.0,28.08,SE,144,5.0,5.0,36,0.00,,,0.00,,2013-04-30 18:52:00,
2013-04-30 14:01:00,86.0,54.0,28.08,SSE,151,8.0,10.0,34,0.00,,,0.00,,2013-04-30 19:01:00,
2013-04-30 14:11:00,85.0,54.0,28.08,SSE,151,8.0,8.0,35,0.00,,,0.00,,2013-04-30 19:11:00,
2013-04-30 14:21:00,85.0,54.0,28.08,SSE,151,8.0,8.0,35,0.00,,,0.00,,2013-04-30 19:21:00,
2013-04-30 14:32:00,86.0,54.0,28.08,SSE,154,5.0,7.0,34,0.00,,,0.00,,2013-04-30 19:32:00,
2013-04-30 14:42:00,87.0,54.0,28.08,SE,136,4.0,9.0,33,0.00,,,0.00,,2013-04-30 19:42:00,
2013-04-30 14:52:00,87.0,54.0,28.08,SE,136,4.0,9.0,33,0.00,,,0.00,,2013-04-30 19:52:00,
2013-04-30 15:02:00,87.0,54.0,28.08,SE,136,4.0,9.0,33,0.00,,,0.00,,2013-04-30 20:02:00,
2013-04-30 15:11:00,87.0,54.0,28.08,SE,136,4.0,9.0,33,0.00,,,0.00,,2013-04-30 20:11:00,
2013-04-30 15:21:00,87.0,54.0,28.08,South,170,7.0,7.0,33,0.00,,,0.00,,2013-04-30 20:21:00,
2013-04-30 15:32:00,88.0,54.0,28.08,SSE,157,5.0,8.0,31,0.00,,,0.00,,2013-04-30 20:32:00,
2013-04-30 15:42:00,88.0,54.0,28.08,SSE,157,5.0,8.0,31,0.00,,,0.00,,2013-04-30 20:42:00,
2013-04-30 15:52:00,88.0,54.0,28.08,SSE,161,5.0,5.0,31,0.00,,,0.00,,2013-04-30 20:52:00,
2013-04-30 16:02:00,88.0,54.0,28.08,SSE,153,3.0,7.0,31,0.00,,,0.00,,2013-04-30 21:02:00,
2013-04-30 16:11:00,87.0,53.0,28.08,SE,142,4.0,7.0,31,0.00,,,0.00,,2013-04-30 21:11:00,
2013-04-30 16:22:00,87.0,53.0,28.08,SE,142,4.0,7.0,31,0.00,,,0.00,,2013-04-30 21:22:00,
2013-04-30 16:32:00,87.0,54.0,28.08,SE,138,8.0,9.0,32,0.00,,,0.00,,2013-04-30 21:32:00,
2013-04-30 16:42:00,87.0,54.0,28.08,SE,138,8.0,9.0,32,0.00,,,0.00,,2013-04-30 21:42:00,
2013-04-30 16:53:00,86.0,54.0,28.08,ESE,105,13.0,13.0,33,0.00,,,0.00,,2013-04-30 21:53:00,
2013-04-30 17:02:00,86.0,54.0,28.08,ESE,105,13.0,13.0,33,0.00,,,0.00,,2013-04-30 22:02:00,
2013-04-30 17:12:00,86.0,54.0,28.08,ESE,105,13.0,13.0,33,0.00,,,0.00,,2013-04-30 22:12:00,
2013-04-30 17:23:00,85.0,53.0,28.08,South,170,7.0,9.0,33,0.00,,,0.00,,2013-04-30 22:23:00,
2013-04-30 17:32:00,85.0,53.0,28.08,SE,138,6.0,9.0,33,0.00,,,0.00,,2013-04-30 22:32:00,
2013-04-30 17:42:00,85.0,53.0,28.08,SE,138,6.0,9.0,33,0.00,,,0.00,,2013-04-30 22:42:00,
2013-04-30 17:53:00,85.0,55.0,28.08,SE,125,6.0,11.0,36,0.00,,,0.00,,2013-04-30 22:53:00,
2013-04-30 18:02:00,84.0,54.0,28.08,SSE,165,7.0,13.0,36,0.00,,,0.00,,2013-04-30 23:02:00,
2013-04-30 18:12:00,84.0,54.0,28.08,SSE,165,7.0,13.0,36,0.00,,,0.00,,2013-04-30 23:12:00,
2013-04-30 18:21:00,83.0,53.0,28.08,SSE,158,7.0,8.0,36,0.00,,,0.00,,2013-04-30 23:21:00,
2013-04-30 18:32:00,83.0,52.0,28.08,South,172,5.0,10.0,35,0.00,,,0.00,,2013-04-30 23:32:00,
2013-04-30 18:42:00,83.0,52.0,28.08,South,172,5.0,10.0,35,0.00,,,0.00,,2013-04-30 23:42:00,
2013-04-30 18:52:00,83.0,52.0,28.08,SSE,158,8.0,8.0,34,0.00,,,0.00,,2013-04-30 23:52:00,
2013-04-30 19:01:00,82.0,52.0,28.08,SSE,163,5.0,7.0,35,0.00,,,0.00,,2013-05-01 00:01:00,
2013-04-30 19:11:00,82.0,52.0,28.08,SSE,163,5.0,7.0,35,0.00,,,0.00,,2013-05-01 00:11:00,
2013-04-30 19:21:00,81.0,52.0,28.08,SSE,156,3.0,7.0,36,0.00,,,0.00,,2013-05-01 00:21:00,
2013-04-30 19:32:00,81.0,51.0,28.08,SSE,162,8.0,12.0,35,0.00,,,0.00,,2013-05-01 00:32:00,
2013-04-30 19:42:00,81.0,51.0,28.08,SSE,162,8.0,12.0,35,0.00,,,0.00,,2013-05-01 00:42:00,
2013-04-30 19:52:00,79.0,50.0,28.11,SSE,160,7.0,7.0,36,0.00,,,0.00,,2013-05-01 00:52:00,
2013-04-30 20:01:00,78.0,51.0,28.11,SSE,147,5.0,5.0,39,0.00,,,0.00,,2013-05-01 01:01:00,
2013-04-30 20:11:00,78.0,51.0,28.11,SSE,147,5.0,5.0,39,0.00,,,0.00,,2013-05-01 01:11:00,
2013-04-30 20:21:00,78.0,52.0,28.11,SE,124,5.0,5.0,41,0.00,,,0.00,,2013-05-01 01:21:00,
2013-04-30 20:31:00,78.0,52.0,28.11,SE,124,5.0,5.0,41,0.00,,,0.00,,2013-05-01 01:31:00,
2013-04-30 20:41:00,78.0,52.0,28.11,SE,124,5.0,5.0,41,0.00,,,0.00,,2013-05-01 01:41:00,
2013-04-30 20:52:00,76.0,51.0,28.11,SSE,148,6.0,6.0,41,0.00,,,0.00,,2013-05-01 01:52:00,
2013-04-30 21:02:00,75.0,50.0,28.11,SSE,151,2.0,4.0,42,0.00,,,0.00,,2013-05-01 02:02:00,
2013-04-30 21:11:00,74.0,50.0,28.14,SSE,153,0.0,0.0,43,0.00,,,0.00,,2013-05-01 02:11:00,
2013-04-30 21:21:00,74.0,50.0,28.14,SSE,153,0.0,0.0,43,0.00,,,0.00,,2013-05-01 02:21:00,
2013-04-30 21:32:00,74.0,50.0,28.14,SSE,153,0.0,0.0,43,0.00,,,0.00,,2013-05-01 02:32:00,
2013-04-30 21:42:00,74.0,50.0,28.14,SSE,153,0.0,0.0,43,0.00,,,0.00,,2013-05-01 02:42:00,
2013-04-30 21:51:00,74.0,50.0,28.14,SSE,153,0.0,0.0,43,0.00,,,0.00,,2013-05-01 02:51:00,
2013-04-30 22:02:00,71.0,51.0,28.14,SE,144,2.0,2.0,50,0.00,,,0.00,,2013-05-01 03:02:00,
2013-04-30 22:11:00,71.0,51.0,28.14,SE,144,2.0,2.0,50,0.00,,,0.00,,2013-05-01 03:11:00,
2013-04-30 22:21:00,70.0,52.0,28.14,SE,124,2.0,3.0,52,0.00,,,0.00,,2013-05-01 03:21:00,
2013-04-30 22:33:00,70.0,52.0,28.14,SE,124,2.0,3.0,52,0.00,,,0.00,,2013-05-01 03:33:00,
2013-04-30 22:43:00,70.0,52.0,28.14,SE,124,2.0,3.0,52,0.00,,,0.00,,2013-05-01 03:43:00,
2013-04-30 22:53:00,70.0,51.0,28.14,South,170,3.0,5.0,51,0.00,,,0.00,,2013-05-01 03:53:00,
2013-04-30 23:03:00,70.0,51.0,28.17,SE,140,3.0,3.0,51,0.00,,,0.00,,2013-05-01 04:03:00,
2013-04-30 23:12:00,70.0,51.0,28.17,SE,140,3.0,3.0,51,0.00,,,0.00,,2013-05-01 04:12:00,
2013-04-30 23:22:00,69.0,51.0,28.14,SSE,154,3.0,5.0,53,0.00,,,0.00,,2013-05-01 04:22:00,
2013-04-30 23:32:00,69.0,51.0,28.17,SE,127,2.0,3.0,52,0.00,,,0.00,,2013-05-01 04:32:00,
2013-04-30 23:42:00,69.0,51.0,28.17,SE,127,2.0,3.0,52,0.00,,,0.00,,2013-05-01 04:42:00,
2013-04-30 23:52:00,69.0,51.0,28.17,SE,136,3.0,3.0,52,0.00,,,0.00,,2013-05-01 04:52:00,